Time;durP1;ratioP1;P1;durP2;ratioP2;P2;SDS_P1;SDS_P2;PMS_P1;PMS_P2;Temp;Humidity;BMP_temperature;BMP_pressure;BME280_temperature;BME280_humidity;BME280_pressure;Samples;Min_cycle;Max_cycle;Signal;HPM_P1;HPM_P2
2023/12/06 00:01:32;;;;;;;52.72;24.75;;;;;;;;;;5055930;28;20033;-66
2023/12/06 00:03:57;;;;;;;33.78;19.60;;;;;;;;;;5055717;28;20316;-66
2023/12/06 00:06:24;;;;;;;46.30;22.88;;;;;;;;;;5055828;28;20478;-66
2023/12/06 00:08:52;;;;;;;54.47;26.02;;;;;;;;;;5055568;28;20036;-66
2023/12/06 00:11:20;;;;;;;69.97;25.58;;;;;;;;;;5055695;28;20116;-67
2023/12/06 00:13:46;;;;;;;43.67;22.23;;;;;;;;;;5055647;28;20021;-66
2023/12/06 00:16:11;;;;;;;47.80;21.88;;;;;;;;;;5055328;28;20036;-66
2023/12/06 00:18:37;;;;;;;60.30;23.77;;;;;;;;;;5055616;28;20436;-67
2023/12/06 00:21:03;;;;;;;96.53;40.30;;;;;;;;;;5055434;28;20454;-66
2023/12/06 00:23:28;;;;;;;75.80;28.02;;;;;;;;;;5055265;28;20024;-66
2023/12/06 00:25:53;;;;;;;76.90;28.55;;;;;;;;;;5055337;28;20103;-66
2023/12/06 00:28:19;;;;;;;61.92;24.10;;;;;;;;;;5055388;28;20017;-66
2023/12/06 00:30:45;;;;;;;68.95;25.92;;;;;;;;;;5054958;28;20033;-66
2023/12/06 00:33:10;;;;;;;76.07;33.42;;;;;;;;;;5055356;28;20051;-66
2023/12/06 00:35:35;;;;;;;43.38;22.77;;;;;;;;;;5054943;28;20033;-66
2023/12/06 00:38:01;;;;;;;67.75;26.83;;;;;;;;;;5054863;28;20471;-67
2023/12/06 00:40:26;;;;;;;47.22;20.17;;;;;;;;;;5055050;28;20055;-66
2023/12/06 00:42:52;;;;;;;57.70;23.20;;;;;;;;;;5054587;28;20029;-66
2023/12/06 00:45:17;;;;;;;63.70;30.60;;;;;;;;;;5054418;28;20033;-66
2023/12/06 00:47:43;;;;;;;47.55;22.38;;;;;;;;;;5054645;28;20028;-66
2023/12/06 00:50:08;;;;;;;50.00;22.20;;;;;;;;;;5052348;28;20078;-66
2023/12/06 00:52:34;;;;;;;44.88;22.05;;;;;;;;;;5053601;28;20398;-66
2023/12/06 00:54:59;;;;;;;34.42;17.83;;;;;;;;;;5054312;28;20028;-66
2023/12/06 00:57:25;;;;;;;64.05;31.55;;;;;;;;;;5054359;28;20025;-66
2023/12/06 00:59:50;;;;;;;86.28;33.50;;;;;;;;;;5054523;28;20028;-65
2023/12/06 01:02:16;;;;;;;37.78;17.20;;;;;;;;;;5054290;28;20037;-65
2023/12/06 01:04:41;;;;;;;57.72;23.85;;;;;;;;;;5054156;28;20039;-65
2023/12/06 01:07:06;;;;;;;54.72;23.33;;;;;;;;;;5052873;28;20103;-65
2023/12/06 01:09:32;;;;;;;60.00;24.15;;;;;;;;;;5054165;28;20131;-65
2023/12/06 01:11:58;;;;;;;42.53;21.73;;;;;;;;;;5053979;28;20021;-66
2023/12/06 01:14:24;;;;;;;57.25;22.40;;;;;;;;;;5054154;28;20025;-66
2023/12/06 01:16:49;;;;;;;49.65;24.13;;;;;;;;;;5054112;28;20356;-65
2023/12/06 01:19:16;;;;;;;39.38;20.55;;;;;;;;;;5054074;28;20020;-65
2023/12/06 01:21:42;;;;;;;64.78;27.35;;;;;;;;;;5051144;28;20021;-65
2023/12/06 01:24:07;;;;;;;71.88;30.73;;;;;;;;;;5053774;28;20013;-65
2023/12/06 01:26:33;;;;;;;49.05;19.70;;;;;;;;;;5053886;28;20021;-65
2023/12/06 01:28:59;;;;;;;56.60;24.52;;;;;;;;;;5053808;28;20539;-67
2023/12/06 01:31:25;;;;;;;70.50;31.50;;;;;;;;;;5053655;28;20021;-65
2023/12/06 01:33:50;;;;;;;50.45;21.60;;;;;;;;;;5053741;28;20025;-65
2023/12/06 01:36:16;;;;;;;79.22;34.53;;;;;;;;;;5053383;28;20037;-66
2023/12/06 01:38:41;;;;;;;67.95;30.13;;;;;;;;;;5050946;28;20029;-66
2023/12/06 01:41:10;;;;;;;70.45;29.45;;;;;;;;;;5053641;28;20480;-66
2023/12/06 01:43:36;;;;;;;68.57;33.25;;;;;;;;;;5072585;28;20163;-66
2023/12/06 01:46:02;;;;;;;51.92;23.48;;;;;;;;;;5073944;28;20020;-66
2023/12/06 01:48:29;;;;;;;74.13;28.70;;;;;;;;;;5054532;28;20035;-66
2023/12/06 01:50:56;;;;;;;69.13;29.00;;;;;;;;;;5053592;28;20486;-66
2023/12/06 01:53:21;;;;;;;53.17;24.45;;;;;;;;;;5053625;28;20124;-65
2023/12/06 01:55:47;;;;;;;51.00;22.42;;;;;;;;;;5053770;28;20116;-65
2023/12/06 01:58:13;;;;;;;74.47;32.22;;;;;;;;;;5053899;28;20029;-65
2023/12/06 02:00:39;;;;;;;53.72;24.52;;;;;;;;;;5053661;28;20029;-66
2023/12/06 02:03:05;;;;;;;48.15;23.20;;;;;;;;;;5053420;28;20091;-65
2023/12/06 02:05:30;;;;;;;53.72;26.70;;;;;;;;;;5053261;28;20028;-66
2023/12/06 02:07:56;;;;;;;72.10;33.03;;;;;;;;;;5053708;28;20021;-66
2023/12/06 02:10:22;;;;;;;48.78;22.58;;;;;;;;;;5053538;28;20466;-66
2023/12/06 02:12:47;;;;;;;67.30;28.85;;;;;;;;;;5053530;28;20025;-66
2023/12/06 02:15:13;;;;;;;61.30;26.88;;;;;;;;;;5053299;28;20423;-66
2023/12/06 02:17:40;;;;;;;77.13;32.00;;;;;;;;;;5053390;28;20029;-66
2023/12/06 02:20:07;;;;;;;53.15;25.30;;;;;;;;;;5053141;28;20028;-66
2023/12/06 02:22:33;;;;;;;64.30;23.42;;;;;;;;;;5053225;28;20029;-66
2023/12/06 02:24:59;;;;;;;61.00;26.33;;;;;;;;;;5053243;28;20385;-66
2023/12/06 02:27:25;;;;;;;74.95;29.17;;;;;;;;;;5053176;28;20068;-65
2023/12/06 02:29:51;;;;;;;67.22;26.67;;;;;;;;;;5053237;28;20021;-65
2023/12/06 02:32:16;;;;;;;83.72;37.05;;;;;;;;;;5053102;28;20057;-65
2023/12/06 02:34:42;;;;;;;79.72;35.08;;;;;;;;;;5052625;28;20450;-65
2023/12/06 02:37:10;;;;;;;77.93;34.20;;;;;;;;;;5053175;28;20025;-65
2023/12/06 02:39:39;;;;;;;93.20;43.60;;;;;;;;;;5053060;28;20029;-65
2023/12/06 02:42:05;;;;;;;55.92;26.60;;;;;;;;;;5059159;28;20488;-65
2023/12/06 02:44:30;;;;;;;33.38;17.70;;;;;;;;;;5073006;28;20028;-67
2023/12/06 02:46:56;;;;;;;31.40;15.40;;;;;;;;;;5066136;28;20441;-67
2023/12/06 02:49:21;;;;;;;38.80;19.20;;;;;;;;;;5052699;28;20040;-66
2023/12/06 02:51:47;;;;;;;74.43;33.25;;;;;;;;;;5052838;28;20029;-70
2023/12/06 02:54:12;;;;;;;45.55;22.10;;;;;;;;;;5052624;28;20041;-65
2023/12/06 02:56:38;;;;;;;52.90;23.25;;;;;;;;;;5052755;28;20076;-66
2023/12/06 02:59:03;;;;;;;67.28;28.05;;;;;;;;;;5052895;28;20111;-65
2023/12/06 03:01:28;;;;;;;57.00;21.60;;;;;;;;;;5052798;28;20017;-67
2023/12/06 03:03:54;;;;;;;65.72;29.58;;;;;;;;;;5052494;28;20032;-67
2023/12/06 03:06:19;;;;;;;60.05;25.73;;;;;;;;;;5052773;28;20029;-67
2023/12/06 03:08:45;;;;;;;56.80;23.83;;;;;;;;;;5052596;28;20028;-66
2023/12/06 03:11:10;;;;;;;76.85;33.78;;;;;;;;;;5052779;28;20025;-65
2023/12/06 03:13:35;;;;;;;44.50;22.08;;;;;;;;;;5051891;28;20025;-66
2023/12/06 03:16:01;;;;;;;85.20;38.70;;;;;;;;;;5052761;28;20198;-65
2023/12/06 03:18:27;;;;;;;63.53;26.23;;;;;;;;;;5052402;28;20035;-66
2023/12/06 03:20:52;;;;;;;64.85;33.75;;;;;;;;;;5052483;28;20487;-67
2023/12/06 03:23:18;;;;;;;74.32;32.05;;;;;;;;;;5052579;28;20037;-67
2023/12/06 03:25:43;;;;;;;58.22;25.00;;;;;;;;;;5052368;28;20090;-65
2023/12/06 03:28:09;;;;;;;71.50;27.98;;;;;;;;;;5052428;28;20037;-65
2023/12/06 03:30:34;;;;;;;41.45;20.90;;;;;;;;;;5052285;28;20033;-66
2023/12/06 03:32:59;;;;;;;39.05;20.75;;;;;;;;;;5050790;28;20036;-66
2023/12/06 03:35:25;;;;;;;69.05;30.38;;;;;;;;;;5052025;28;20040;-66
2023/12/06 03:37:50;;;;;;;63.83;29.45;;;;;;;;;;5052439;28;20469;-65
2023/12/06 03:40:16;;;;;;;72.80;32.55;;;;;;;;;;5052326;28;20021;-66
2023/12/06 03:42:42;;;;;;;43.28;20.73;;;;;;;;;;5063584;28;20485;-66
2023/12/06 03:45:09;;;;;;;82.70;37.42;;;;;;;;;;5072373;28;20028;-66
2023/12/06 03:47:34;;;;;;;92.20;38.50;;;;;;;;;;5059765;28;20036;-67
2023/12/06 03:50:00;;;;;;;45.42;24.27;;;;;;;;;;5052297;28;20025;-68
2023/12/06 03:52:25;;;;;;;55.92;26.73;;;;;;;;;;5050900;28;20116;-66
2023/12/06 03:54:51;;;;;;;69.80;29.48;;;;;;;;;;5051990;28;20048;-67
2023/12/06 03:57:16;;;;;;;39.85;18.67;;;;;;;;;;5052091;28;20017;-67
2023/12/06 03:59:41;;;;;;;70.35;28.52;;;;;;;;;;5052163;28;20037;-66
2023/12/06 04:02:07;;;;;;;86.55;35.38;;;;;;;;;;5051847;28;20103;-67
2023/12/06 04:04:32;;;;;;;55.25;28.15;;;;;;;;;;5051929;28;20031;-66
2023/12/06 04:06:58;;;;;;;55.03;24.15;;;;;;;;;;5052145;28;20025;-67
2023/12/06 04:09:23;;;;;;;54.15;24.40;;;;;;;;;;5051913;28;20033;-66
2023/12/06 04:11:48;;;;;;;57.28;25.10;;;;;;;;;;5052013;28;20025;-66
2023/12/06 04:14:14;;;;;;;65.38;29.40;;;;;;;;;;5050649;28;20032;-67
2023/12/06 04:16:39;;;;;;;67.50;31.02;;;;;;;;;;5051635;28;20159;-67
2023/12/06 04:19:05;;;;;;;48.85;23.00;;;;;;;;;;5051938;28;20108;-66
2023/12/06 04:21:30;;;;;;;76.55;35.13;;;;;;;;;;5051880;28;20033;-67
2023/12/06 04:23:56;;;;;;;48.92;21.77;;;;;;;;;;5051694;28;20112;-66
2023/12/06 04:26:21;;;;;;;57.35;24.27;;;;;;;;;;5055086;28;20028;-66
2023/12/06 04:28:47;;;;;;;41.28;20.73;;;;;;;;;;5055541;28;20087;-66
2023/12/06 04:31:12;;;;;;;24.27;12.05;;;;;;;;;;5055260;28;20097;-67
2023/12/06 04:33:38;;;;;;;70.72;27.10;;;;;;;;;;5055288;28;20021;-66
2023/12/06 04:36:04;;;;;;;54.22;22.00;;;;;;;;;;5055271;28;20163;-66
2023/12/06 04:38:30;;;;;;;71.97;29.35;;;;;;;;;;5055440;28;20385;-66
2023/12/06 04:40:56;;;;;;;58.20;24.25;;;;;;;;;;5054841;28;20104;-66
2023/12/06 04:43:21;;;;;;;68.00;30.90;;;;;;;;;;5071749;28;20028;-65
2023/12/06 04:45:47;;;;;;;66.65;28.08;;;;;;;;;;5075012;28;20052;-66
2023/12/06 04:48:12;;;;;;;42.38;20.08;;;;;;;;;;5057881;28;20032;-66
2023/12/06 04:50:37;;;;;;;48.13;25.05;;;;;;;;;;5055124;28;20060;-66
2023/12/06 04:53:03;;;;;;;44.88;22.75;;;;;;;;;;5054838;28;20094;-66
2023/12/06 04:55:28;;;;;;;53.35;23.95;;;;;;;;;;5054590;28;20021;-66
2023/12/06 04:57:54;;;;;;;38.63;23.15;;;;;;;;;;5054797;28;20017;-66
2023/12/06 05:00:21;;;;;;;64.65;27.15;;;;;;;;;;5055053;28;20104;-66
2023/12/06 05:02:47;;;;;;;43.85;23.08;;;;;;;;;;5054940;28;20056;-66
2023/12/06 05:05:12;;;;;;;30.77;17.30;;;;;;;;;;5053472;28;20385;-65
2023/12/06 05:07:38;;;;;;;49.80;25.60;;;;;;;;;;5054846;28;20025;-66
2023/12/06 05:10:04;;;;;;;68.20;28.40;;;;;;;;;;5054735;28;20033;-65
2023/12/06 05:12:29;;;;;;;42.42;20.23;;;;;;;;;;5054381;28;20083;-66
2023/12/06 05:14:54;;;;;;;67.22;30.02;;;;;;;;;;5054397;28;20029;-65
2023/12/06 05:17:20;;;;;;;41.10;22.52;;;;;;;;;;5054618;28;20021;-66
2023/12/06 05:19:46;;;;;;;73.07;30.23;;;;;;;;;;5054676;28;20454;-65
2023/12/06 05:22:11;;;;;;;61.10;28.17;;;;;;;;;;5054429;28;20028;-66
2023/12/06 05:24:36;;;;;;;62.88;29.13;;;;;;;;;;5054381;28;20107;-67
2023/12/06 05:27:02;;;;;;;69.28;28.05;;;;;;;;;;5054118;28;20423;-66
2023/12/06 05:29:28;;;;;;;47.17;21.60;;;;;;;;;;5054218;28;20029;-66
2023/12/06 05:31:53;;;;;;;62.95;27.95;;;;;;;;;;5054309;28;20099;-65
2023/12/06 05:34:19;;;;;;;52.45;22.60;;;;;;;;;;5054110;28;20017;-66
2023/12/06 05:36:44;;;;;;;43.80;19.67;;;;;;;;;;5053462;28;20028;-66
2023/12/06 05:39:10;;;;;;;50.25;22.52;;;;;;;;;;5054230;28;20029;-67
2023/12/06 05:41:36;;;;;;;67.30;27.85;;;;;;;;;;5055988;28;20029;-67
2023/12/06 05:44:04;;;;;;;50.25;27.38;;;;;;;;;;5074084;28;20029;-66
2023/12/06 05:46:29;;;;;;;72.65;31.27;;;;;;;;;;5070898;28;20028;-67
2023/12/06 05:48:55;;;;;;;46.85;23.42;;;;;;;;;;5054010;28;20051;-67
2023/12/06 05:51:20;;;;;;;69.90;32.90;;;;;;;;;;5053952;28;20021;-67
2023/12/06 05:53:46;;;;;;;66.45;28.27;;;;;;;;;;5053647;28;20513;-67
2023/12/06 05:56:11;;;;;;;52.22;20.95;;;;;;;;;;5053651;28;20639;-67
2023/12/06 05:58:37;;;;;;;48.38;22.92;;;;;;;;;;5053901;28;20033;-67
2023/12/06 06:01:04;;;;;;;71.55;29.20;;;;;;;;;;5053769;28;20025;-67
2023/12/06 06:03:29;;;;;;;41.67;19.67;;;;;;;;;;5053582;28;20086;-67
2023/12/06 06:05:55;;;;;;;73.43;31.77;;;;;;;;;;5053619;28;20032;-67
2023/12/06 06:08:20;;;;;;;81.65;32.08;;;;;;;;;;5053816;28;20025;-67
2023/12/06 06:10:46;;;;;;;80.28;31.95;;;;;;;;;;5053408;28;20029;-67
2023/12/06 06:13:11;;;;;;;77.63;29.90;;;;;;;;;;5053656;28;20029;-67
2023/12/06 06:15:37;;;;;;;67.82;25.73;;;;;;;;;;5053223;28;20108;-67
2023/12/06 06:18:05;;;;;;;88.30;35.78;;;;;;;;;;5052069;28;20115;-67
2023/12/06 06:20:33;;;;;;;87.65;33.63;;;;;;;;;;5051902;28;20017;-67
2023/12/06 06:22:59;;;;;;;37.50;19.95;;;;;;;;;;5053225;28;20203;-67
2023/12/06 06:25:24;;;;;;;84.38;40.10;;;;;;;;;;5052940;28;20057;-67
2023/12/06 06:27:50;;;;;;;78.88;33.30;;;;;;;;;;5053283;28;20028;-67
2023/12/06 06:30:16;;;;;;;70.20;31.20;;;;;;;;;;5052981;28;20616;-66
2023/12/06 06:32:41;;;;;;;75.38;33.15;;;;;;;;;;5053064;28;20025;-66
2023/12/06 06:35:07;;;;;;;85.90;33.75;;;;;;;;;;5052844;28;20031;-66
2023/12/06 06:37:33;;;;;;;55.22;23.83;;;;;;;;;;5052921;28;20037;-67
2023/12/06 06:39:59;;;;;;;76.55;29.55;;;;;;;;;;5052654;28;20079;-67
2023/12/06 06:42:24;;;;;;;91.85;40.20;;;;;;;;;;5061256;28;20025;-68
2023/12/06 06:44:51;;;;;;;93.90;40.55;;;;;;;;;;5072698;28;20099;-66
2023/12/06 06:47:17;;;;;;;55.72;26.40;;;;;;;;;;5063097;28;20043;-66
2023/12/06 06:49:43;;;;;;;84.07;33.55;;;;;;;;;;5051758;28;20021;-67
2023/12/06 06:52:08;;;;;;;92.82;39.30;;;;;;;;;;5052450;28;20370;-66
2023/12/06 06:54:33;;;;;;;81.53;34.65;;;;;;;;;;5052606;28;20130;-67
2023/12/06 06:56:59;;;;;;;101.45;40.88;;;;;;;;;;5052746;28;20025;-67
2023/12/06 06:59:24;;;;;;;93.35;39.03;;;;;;;;;;5052722;28;20028;-67
2023/12/06 07:01:50;;;;;;;104.95;38.85;;;;;;;;;;5052743;28;20410;-66
2023/12/06 07:04:15;;;;;;;74.68;30.45;;;;;;;;;;5052612;28;20060;-66
2023/12/06 07:06:40;;;;;;;53.60;23.05;;;;;;;;;;5052621;28;20390;-67
2023/12/06 07:09:06;;;;;;;59.70;25.52;;;;;;;;;;5052302;28;20025;-67
2023/12/06 07:11:33;;;;;;;54.30;22.33;;;;;;;;;;5052654;28;20054;-66
2023/12/06 07:13:58;;;;;;;48.72;21.35;;;;;;;;;;5052427;28;20025;-66
2023/12/06 07:16:24;;;;;;;83.90;34.67;;;;;;;;;;5051125;28;20056;-66
2023/12/06 07:18:50;;;;;;;66.47;28.58;;;;;;;;;;5052388;28;20493;-66
2023/12/06 07:21:15;;;;;;;94.95;40.38;;;;;;;;;;5052392;28;20033;-66
2023/12/06 07:23:40;;;;;;;70.90;30.33;;;;;;;;;;5052277;28;20085;-66
2023/12/06 07:26:07;;;;;;;73.18;30.95;;;;;;;;;;5052576;28;20031;-66
2023/12/06 07:28:33;;;;;;;56.67;26.95;;;;;;;;;;5052433;28;20017;-66
2023/12/06 07:30:59;;;;;;;85.38;32.05;;;;;;;;;;5052208;28;20373;-66
2023/12/06 07:33:26;;;;;;;68.32;29.98;;;;;;;;;;5052311;28;20079;-66
2023/12/06 07:35:52;;;;;;;65.70;27.75;;;;;;;;;;5052166;28;20094;-67
2023/12/06 07:38:17;;;;;;;58.15;26.70;;;;;;;;;;5051995;28;20381;-67
2023/12/06 07:40:43;;;;;;;70.07;31.30;;;;;;;;;;5052215;28;20566;-66
2023/12/06 07:43:08;;;;;;;57.20;25.95;;;;;;;;;;5067063;28;20028;-66
2023/12/06 07:45:33;;;;;;;77.63;31.75;;;;;;;;;;5072322;28;20025;-66
2023/12/06 07:47:59;;;;;;;83.07;31.15;;;;;;;;;;5056656;28;20482;-66
2023/12/06 07:50:25;;;;;;;87.40;38.40;;;;;;;;;;5041877;28;20107;-66
2023/12/06 07:52:51;;;;;;;66.18;26.65;;;;;;;;;;5041313;28;20502;-66
2023/12/06 07:55:16;;;;;;;90.07;40.47;;;;;;;;;;5049611;28;20025;-66
2023/12/06 07:57:42;;;;;;;56.72;25.55;;;;;;;;;;5072048;28;20131;-67
2023/12/06 08:00:11;;;;;;;55.97;27.85;;;;;;;;;;5055571;28;20048;-67
2023/12/06 08:02:39;;;;;;;104.50;44.28;;;;;;;;;;5055701;28;20043;-67
2023/12/06 08:05:09;;;;;;;69.85;31.08;;;;;;;;;;5055425;28;20131;-67
2023/12/06 08:07:35;;;;;;;85.95;31.75;;;;;;;;;;5059709;28;20024;-67
2023/12/06 08:10:08;;;;;;;47.13;18.67;;;;;;;;;;5075566;28;20036;-67
2023/12/06 08:12:34;;;;;;;61.28;30.52;;;;;;;;;;5075533;28;20021;-67
2023/12/06 08:14:59;;;;;;;76.10;31.75;;;;;;;;;;5075311;28;20032;-67
2023/12/06 08:17:24;;;;;;;100.55;45.00;;;;;;;;;;5075412;28;20035;-66
2023/12/06 08:19:51;;;;;;;87.00;36.55;;;;;;;;;;5074123;28;20103;-66
2023/12/06 08:22:16;;;;;;;63.22;28.60;;;;;;;;;;5058068;28;20107;-66
2023/12/06 08:24:41;;;;;;;80.38;29.58;;;;;;;;;;5055164;28;20112;-67
2023/12/06 08:27:07;;;;;;;42.15;23.55;;;;;;;;;;5055411;28;20462;-67
2023/12/06 08:29:32;;;;;;;47.10;22.27;;;;;;;;;;5055204;28;20044;-67
2023/12/06 08:31:58;;;;;;;74.60;32.97;;;;;;;;;;5055144;28;20044;-67
2023/12/06 08:34:23;;;;;;;68.13;32.47;;;;;;;;;;5053632;28;20032;-67
2023/12/06 08:36:48;;;;;;;91.63;38.00;;;;;;;;;;5054786;28;20056;-67
2023/12/06 08:39:15;;;;;;;79.13;35.13;;;;;;;;;;5055062;28;20025;-67
2023/12/06 08:41:40;;;;;;;78.70;32.03;;;;;;;;;;5054862;28;20736;-67
2023/12/06 08:44:07;;;;;;;48.90;21.65;;;;;;;;;;5060212;28;20025;-67
2023/12/06 08:46:32;;;;;;;80.80;37.35;;;;;;;;;;5071400;28;20119;-67
2023/12/06 08:48:58;;;;;;;79.00;31.73;;;;;;;;;;5054786;28;20056;-68
2023/12/06 08:51:23;;;;;;;53.53;23.48;;;;;;;;;;5054753;28;20032;-68
2023/12/06 08:53:48;;;;;;;50.78;21.05;;;;;;;;;;5054589;28;20043;-67
2023/12/06 08:56:14;;;;;;;72.13;30.02;;;;;;;;;;5054626;28;20050;-67
2023/12/06 08:58:40;;;;;;;66.13;31.77;;;;;;;;;;5048988;28;20071;-67
2023/12/06 09:01:05;;;;;;;99.20;42.85;;;;;;;;;;5034803;28;20026;-68
2023/12/06 09:03:30;;;;;;;69.70;27.13;;;;;;;;;;5034708;28;20475;-69
2023/12/06 09:05:57;;;;;;;66.43;28.23;;;;;;;;;;5034351;28;20471;-67
2023/12/06 09:08:23;;;;;;;86.00;38.47;;;;;;;;;;5034550;28;20037;-67
2023/12/06 09:10:49;;;;;;;92.15;38.97;;;;;;;;;;5034086;28;20387;-67
2023/12/06 09:13:16;;;;;;;72.85;30.75;;;;;;;;;;5033781;28;20030;-67
2023/12/06 09:15:42;;;;;;;47.67;24.10;;;;;;;;;;5033126;28;20479;-67
2023/12/06 09:18:07;;;;;;;90.28;36.45;;;;;;;;;;5034299;28;20044;-67
2023/12/06 09:20:33;;;;;;;50.38;23.48;;;;;;;;;;5034170;28;20386;-67
2023/12/06 09:22:58;;;;;;;71.15;30.25;;;;;;;;;;5034163;28;20047;-68
2023/12/06 09:25:24;;;;;;;99.28;41.22;;;;;;;;;;5034238;28;20440;-67
2023/12/06 09:27:50;;;;;;;101.93;41.22;;;;;;;;;;5034219;28;20494;-68
2023/12/06 09:30:16;;;;;;;74.82;33.70;;;;;;;;;;5041950;28;20021;-67
2023/12/06 09:32:41;;;;;;;71.75;29.77;;;;;;;;;;5053947;28;20017;-67
2023/12/06 09:35:08;;;;;;;36.88;21.95;;;;;;;;;;5053570;28;20025;-68
2023/12/06 09:37:34;;;;;;;72.93;28.20;;;;;;;;;;5054009;28;20052;-68
2023/12/06 09:39:59;;;;;;;62.47;26.38;;;;;;;;;;5053791;28;20467;-68
2023/12/06 09:42:29;;;;;;;97.20;41.05;;;;;;;;;;5053797;28;20048;-67
2023/12/06 09:44:57;;;;;;;90.50;37.65;;;;;;;;;;5065999;28;20063;-68
2023/12/06 09:47:23;;;;;;;79.57;32.72;;;;;;;;;;5042539;28;20037;-67
2023/12/06 09:49:49;;;;;;;96.43;37.53;;;;;;;;;;5033658;28;20025;-68
2023/12/06 09:52:22;;;;;;;43.35;22.63;;;;;;;;;;5042155;28;20033;-67
2023/12/06 09:54:49;;;;;;;113.15;44.45;;;;;;;;;;5053473;28;20505;-68
2023/12/06 09:57:15;;;;;;;78.63;30.50;;;;;;;;;;5053654;28;20134;-67
2023/12/06 09:59:40;;;;;;;61.70;23.00;;;;;;;;;;5039459;28;20029;-68
2023/12/06 10:02:06;;;;;;;67.95;30.20;;;;;;;;;;5033568;28;20471;-68
2023/12/06 10:04:33;;;;;;;83.82;30.15;;;;;;;;;;5032130;28;20033;-67
2023/12/06 10:06:59;;;;;;;86.55;34.20;;;;;;;;;;5033427;28;20513;-68
2023/12/06 10:09:25;;;;;;;68.68;27.20;;;;;;;;;;5033633;28;20108;-68
2023/12/06 10:11:50;;;;;;;79.88;32.58;;;;;;;;;;5032265;28;20065;-67
2023/12/06 10:14:20;;;;;;;82.85;30.98;;;;;;;;;;5033425;28;20029;-67
2023/12/06 10:16:46;;;;;;;71.22;29.55;;;;;;;;;;5033343;28;20210;-67
2023/12/06 10:19:19;;;;;;;69.60;28.90;;;;;;;;;;5033165;28;20026;-67
2023/12/06 10:21:46;;;;;;;88.90;35.42;;;;;;;;;;5033502;28;20087;-67
2023/12/06 10:24:12;;;;;;;100.78;39.05;;;;;;;;;;5032879;28;20092;-67
2023/12/06 10:26:37;;;;;;;103.80;39.10;;;;;;;;;;5033195;28;20045;-67
2023/12/06 10:29:04;;;;;;;120.93;48.40;;;;;;;;;;5033032;28;20032;-69
2023/12/06 10:31:37;;;;;;;73.47;26.40;;;;;;;;;;5050816;28;20099;-68
2023/12/06 10:34:04;;;;;;;76.32;31.73;;;;;;;;;;5052749;28;20496;-68
2023/12/06 10:36:31;;;;;;;76.25;33.10;;;;;;;;;;5052943;28;20025;-67
2023/12/06 10:38:57;;;;;;;85.47;32.45;;;;;;;;;;5052918;28;20045;-67
2023/12/06 10:41:25;;;;;;;55.75;28.08;;;;;;;;;;5052876;28;20060;-66
2023/12/06 10:43:54;;;;;;;120.03;48.53;;;;;;;;;;5056230;28;20101;-66
2023/12/06 10:46:21;;;;;;;73.53;30.17;;;;;;;;;;5070768;28;20056;-67
2023/12/06 10:48:48;;;;;;;112.68;48.05;;;;;;;;;;5052661;28;20035;-67
2023/12/06 10:51:14;;;;;;;110.28;39.97;;;;;;;;;;5052642;28;20038;-67
2023/12/06 10:53:42;;;;;;;105.40;43.90;;;;;;;;;;5052483;28;20121;-66
2023/12/06 10:56:09;;;;;;;80.35;32.40;;;;;;;;;;5052433;28;20387;-66
2023/12/06 10:58:35;;;;;;;60.45;24.98;;;;;;;;;;5046009;28;20475;-66
2023/12/06 11:01:02;;;;;;;72.00;28.98;;;;;;;;;;5032291;28;20033;-66
2023/12/06 11:03:27;;;;;;;55.10;23.80;;;;;;;;;;5032531;28;20340;-66
2023/12/06 11:05:56;;;;;;;64.68;31.48;;;;;;;;;;5032421;28;20022;-66
2023/12/06 11:08:58;;;;;;;81.32;31.23;;;;;;;;;;5032505;28;20083;-66
2023/12/06 11:11:46;;;;;;;88.10;33.92;;;;;;;;;;5032328;28;20029;-67
2023/12/06 11:14:51;;;;;;;78.60;33.88;;;;;;;;;;5032309;28;20029;-66
2023/12/06 11:17:23;;;;;;;58.13;25.35;;;;;;;;;;5031975;28;20030;-66
2023/12/06 11:19:49;;;;;;;98.50;36.63;;;;;;;;;;5032290;28;20378;-66
2023/12/06 11:22:14;;;;;;;63.80;25.15;;;;;;;;;;5032230;28;20022;-66
2023/12/06 11:24:40;;;;;;;51.83;24.50;;;;;;;;;;5032097;28;20027;-66
2023/12/06 11:27:07;;;;;;;60.80;24.95;;;;;;;;;;5032274;28;20025;-66
2023/12/06 11:29:33;;;;;;;67.57;29.50;;;;;;;;;;5033763;28;20033;-66
2023/12/06 11:32:00;;;;;;;87.93;32.67;;;;;;;;;;5052052;28;20032;-66
2023/12/06 11:34:36;;;;;;;72.00;29.00;;;;;;;;;;5051898;28;20467;-66
2023/12/06 11:37:06;;;;;;;51.30;23.25;;;;;;;;;;5056010;28;20160;-66
2023/12/06 11:39:32;;;;;;;71.47;30.40;;;;;;;;;;5056233;28;20032;-68
2023/12/06 11:41:59;;;;;;;62.25;24.33;;;;;;;;;;5054562;28;20364;-66
2023/12/06 11:44:25;;;;;;;94.63;34.78;;;;;;;;;;5063913;28;20070;-66
2023/12/06 11:46:51;;;;;;;60.17;30.02;;;;;;;;;;5070154;28;20359;-66
2023/12/06 11:49:20;;;;;;;87.05;34.15;;;;;;;;;;5055936;28;20032;-66
2023/12/06 11:52:00;;;;;;;96.32;36.60;;;;;;;;;;5056034;28;20351;-65
2023/12/06 11:54:27;;;;;;;96.13;38.95;;;;;;;;;;5055962;28;20037;-66
2023/12/06 11:56:52;;;;;;;62.05;27.88;;;;;;;;;;5055769;28;20086;-66
2023/12/06 11:59:18;;;;;;;38.35;19.65;;;;;;;;;;5044511;28;20029;-66
2023/12/06 12:01:45;;;;;;;57.50;25.20;;;;;;;;;;5035828;28;20368;-67
2023/12/06 12:04:11;;;;;;;53.70;24.20;;;;;;;;;;5035611;28;20025;-66
2023/12/06 12:06:36;;;;;;;43.50;19.48;;;;;;;;;;5035557;28;20032;-66
2023/12/06 12:09:02;;;;;;;56.63;26.48;;;;;;;;;;5035660;28;20030;-65
2023/12/06 12:11:31;;;;;;;84.65;27.85;;;;;;;;;;5035656;28;20029;-66
2023/12/06 12:13:58;;;;;;;56.25;24.05;;;;;;;;;;5035230;28;20032;-66
2023/12/06 12:16:24;;;;;;;93.65;36.15;;;;;;;;;;5035488;28;20036;-66
2023/12/06 12:18:49;;;;;;;97.47;37.05;;;;;;;;;;5035321;28;20025;-66
2023/12/06 12:21:19;;;;;;;49.65;24.10;;;;;;;;;;5035554;28;20048;-66
2023/12/06 12:23:47;;;;;;;119.72;42.28;;;;;;;;;;5035340;28;20021;-66
2023/12/06 12:26:14;;;;;;;116.10;41.58;;;;;;;;;;5035142;28;20068;-66
2023/12/06 12:28:39;;;;;;;110.90;42.80;;;;;;;;;;5034899;28;20025;-66
2023/12/06 12:31:07;;;;;;;64.47;26.27;;;;;;;;;;5049790;28;20032;-66
2023/12/06 12:33:33;;;;;;;75.90;30.20;;;;;;;;;;5054908;28;20112;-66
2023/12/06 12:35:59;;;;;;;132.70;47.17;;;;;;;;;;5054841;28;20140;-68
2023/12/06 12:38:26;;;;;;;111.78;40.70;;;;;;;;;;5055163;28;20029;-66
2023/12/06 12:40:52;;;;;;;59.58;27.42;;;;;;;;;;5055109;28;20072;-66
2023/12/06 12:43:18;;;;;;;88.43;33.85;;;;;;;;;;5054697;28;20036;-66
2023/12/06 12:45:43;;;;;;;58.45;26.55;;;;;;;;;;5073892;28;20478;-66
2023/12/06 12:48:09;;;;;;;96.68;33.63;;;;;;;;;;5057971;28;20071;-66
2023/12/06 12:50:37;;;;;;;94.72;35.03;;;;;;;;;;5054822;28;20033;-66
2023/12/06 12:53:03;;;;;;;124.43;48.25;;;;;;;;;;5054597;28;20049;-66
2023/12/06 12:55:28;;;;;;;118.43;47.72;;;;;;;;;;5054752;28;20364;-66
2023/12/06 12:57:56;;;;;;;98.88;35.53;;;;;;;;;;5054641;28;20024;-66
2023/12/06 13:00:25;;;;;;;100.05;36.13;;;;;;;;;;5034902;28;20467;-66
2023/12/06 13:02:54;;;;;;;63.30;30.27;;;;;;;;;;5034578;28;20026;-66
2023/12/06 13:05:25;;;;;;;27.58;13.18;;;;;;;;;;5034747;28;20030;-66
2023/12/06 13:07:58;;;;;;;61.05;29.83;;;;;;;;;;5034766;28;20033;-66
2023/12/06 13:10:28;;;;;;;54.22;23.77;;;;;;;;;;5034695;28;20022;-66
2023/12/06 13:12:54;;;;;;;88.82;32.67;;;;;;;;;;5034334;28;20033;-66
2023/12/06 13:15:19;;;;;;;84.53;31.02;;;;;;;;;;5034487;28;20095;-66
2023/12/06 13:17:45;;;;;;;93.18;32.53;;;;;;;;;;5034626;28;20104;-66
2023/12/06 13:20:11;;;;;;;133.55;50.00;;;;;;;;;;5034294;28;20053;-66
2023/12/06 13:22:36;;;;;;;27.33;18.45;;;;;;;;;;5034320;28;20060;-66
2023/12/06 13:25:05;;;;;;;113.97;38.67;;;;;;;;;;5034314;28;20025;-66
2023/12/06 13:27:31;;;;;;;100.97;36.53;;;;;;;;;;5034085;28;20080;-67
2023/12/06 13:29:57;;;;;;;97.47;35.47;;;;;;;;;;5039264;28;20025;-67
2023/12/06 13:32:22;;;;;;;88.18;32.67;;;;;;;;;;5054186;28;20025;-66
2023/12/06 13:34:48;;;;;;;118.93;44.15;;;;;;;;;;5053863;28;20178;-66
2023/12/06 13:37:15;;;;;;;77.70;29.20;;;;;;;;;;5054131;28;20029;-66
2023/12/06 13:39:42;;;;;;;88.18;32.45;;;;;;;;;;5054018;28;20052;-66
2023/12/06 13:42:12;;;;;;;44.38;22.92;;;;;;;;;;5053361;28;20033;-67
2023/12/06 13:44:38;;;;;;;;;;;;;;;;;;5062751;28;20044;-67
2023/12/06 13:47:03;;;;;;;80.47;34.08;;;;;;;;;;5064510;28;20354;-66
2023/12/06 13:49:29;;;;;;;97.90;31.08;;;;;;;;;;5053673;28;20033;-66
2023/12/06 13:51:55;;;;;;;76.78;26.80;;;;;;;;;;5053306;28;20021;-66
2023/12/06 13:54:21;;;;;;;105.93;36.78;;;;;;;;;;5053406;28;20056;-66
2023/12/06 13:56:46;;;;;;;97.65;32.92;;;;;;;;;;5051818;28;20387;-66
2023/12/06 13:59:13;;;;;;;118.03;43.70;;;;;;;;;;5042692;28;20087;-66
2023/12/06 14:01:39;;;;;;;106.72;35.92;;;;;;;;;;5033488;28;20371;-66
2023/12/06 14:04:04;;;;;;;98.50;36.13;;;;;;;;;;5033092;28;20029;-66
2023/12/06 14:06:31;;;;;;;53.97;23.45;;;;;;;;;;5032106;28;20471;-66
2023/12/06 14:08:57;;;;;;;62.38;26.10;;;;;;;;;;5033165;28;20485;-66
2023/12/06 14:11:23;;;;;;;60.25;23.55;;;;;;;;;;5033222;28;20041;-66